sensor_id;sensor_type;location;lat;lon;timestamp;temperature;humidity
51884;DHT22;37915;53.254;6.598;2022-08-20T00:00:20;19.20;99.90
51884;DHT22;37915;53.254;6.598;2022-08-20T00:02:52;19.20;99.90
51884;DHT22;37915;53.254;6.598;2022-08-20T00:05:27;19.20;99.90
51884;DHT22;37915;53.254;6.598;2022-08-20T00:07:53;19.20;99.90
51884;DHT22;37915;53.254;6.598;2022-08-20T00:10:20;19.20;99.90
51884;DHT22;37915;53.254;6.598;2022-08-20T00:12:48;19.20;99.90
51884;DHT22;37915;53.254;6.598;2022-08-20T00:15:15;19.20;99.90
51884;DHT22;37915;53.254;6.598;2022-08-20T00:17:41;19.20;99.90
51884;DHT22;37915;53.254;6.598;2022-08-20T00:20:10;19.10;99.90
51884;DHT22;37915;53.254;6.598;2022-08-20T00:22:37;19.10;99.90
51884;DHT22;37915;53.254;6.598;2022-08-20T00:25:06;19.10;99.90
51884;DHT22;37915;53.254;6.598;2022-08-20T00:27:32;19.10;99.90
51884;DHT22;37915;53.254;6.598;2022-08-20T00:29:58;19.10;99.90
51884;DHT22;37915;53.254;6.598;2022-08-20T00:32:23;19.10;99.90
51884;DHT22;37915;53.254;6.598;2022-08-20T00:34:49;19.10;99.90
51884;DHT22;37915;53.254;6.598;2022-08-20T00:37:15;19.00;99.90
51884;DHT22;37915;53.254;6.598;2022-08-20T00:39:41;19.00;99.90
51884;DHT22;37915;53.254;6.598;2022-08-20T00:42:07;19.00;99.90
51884;DHT22;37915;53.254;6.598;2022-08-20T00:44:33;19.00;99.90
51884;DHT22;37915;53.254;6.598;2022-08-20T00:46:59;19.00;99.90
51884;DHT22;37915;53.254;6.598;2022-08-20T00:49:29;19.00;99.90
51884;DHT22;37915;53.254;6.598;2022-08-20T00:52:10;19.00;99.90
51884;DHT22;37915;53.254;6.598;2022-08-20T00:54:46;19.00;99.90
51884;DHT22;37915;53.254;6.598;2022-08-20T00:57:31;18.90;99.90
51884;DHT22;37915;53.254;6.598;2022-08-20T01:00:00;18.90;99.90
51884;DHT22;37915;53.254;6.598;2022-08-20T01:02:28;18.90;99.90
51884;DHT22;37915;53.254;6.598;2022-08-20T01:04:55;18.90;99.90
51884;DHT22;37915;53.254;6.598;2022-08-20T01:07:26;18.90;99.90
51884;DHT22;37915;53.254;6.598;2022-08-20T01:10:02;18.90;99.90
51884;DHT22;37915;53.254;6.598;2022-08-20T01:12:29;18.80;99.90
51884;DHT22;37915;53.254;6.598;2022-08-20T01:14:57;18.80;99.90
51884;DHT22;37915;53.254;6.598;2022-08-20T01:17:26;18.80;99.90
51884;DHT22;37915;53.254;6.598;2022-08-20T01:20:04;18.80;99.90
51884;DHT22;37915;53.254;6.598;2022-08-20T01:28:44;18.70;99.90
51884;DHT22;37915;53.254;6.598;2022-08-20T01:31:17;18.60;99.90
51884;DHT22;37915;53.254;6.598;2022-08-20T01:33:44;18.60;99.90
51884;DHT22;37915;53.254;6.598;2022-08-20T01:36:11;18.60;99.90
51884;DHT22;37915;53.254;6.598;2022-08-20T01:38:38;18.60;99.90
51884;DHT22;37915;53.254;6.598;2022-08-20T01:43:50;18.50;99.90
51884;DHT22;37915;53.254;6.598;2022-08-20T01:46:23;18.50;99.90
51884;DHT22;37915;53.254;6.598;2022-08-20T01:48:49;18.40;99.90
51884;DHT22;37915;53.254;6.598;2022-08-20T01:51:20;18.40;99.90
51884;DHT22;37915;53.254;6.598;2022-08-20T01:53:49;18.40;99.90
51884;DHT22;37915;53.254;6.598;2022-08-20T01:56:19;18.40;99.90
51884;DHT22;37915;53.254;6.598;2022-08-20T01:58:48;18.40;99.90
51884;DHT22;37915;53.254;6.598;2022-08-20T02:01:26;18.30;99.90
51884;DHT22;37915;53.254;6.598;2022-08-20T02:03:53;18.30;99.90
51884;DHT22;37915;53.254;6.598;2022-08-20T02:06:21;18.30;99.90
51884;DHT22;37915;53.254;6.598;2022-08-20T02:08:54;18.20;99.90
51884;DHT22;37915;53.254;6.598;2022-08-20T02:11:21;18.20;99.90
51884;DHT22;37915;53.254;6.598;2022-08-20T02:13:49;18.20;99.90
51884;DHT22;37915;53.254;6.598;2022-08-20T02:16:20;18.20;99.90
51884;DHT22;37915;53.254;6.598;2022-08-20T02:18:48;18.10;99.90
51884;DHT22;37915;53.254;6.598;2022-08-20T02:21:15;18.10;99.90
51884;DHT22;37915;53.254;6.598;2022-08-20T02:23:40;18.10;99.90
51884;DHT22;37915;53.254;6.598;2022-08-20T02:26:06;18.00;99.90
51884;DHT22;37915;53.254;6.598;2022-08-20T02:28:32;18.00;99.90
51884;DHT22;37915;53.254;6.598;2022-08-20T02:30:57;18.00;99.90
51884;DHT22;37915;53.254;6.598;2022-08-20T02:33:25;17.90;99.90
51884;DHT22;37915;53.254;6.598;2022-08-20T02:35:51;17.90;99.90
51884;DHT22;37915;53.254;6.598;2022-08-20T02:38:18;17.90;99.90
51884;DHT22;37915;53.254;6.598;2022-08-20T02:40:45;17.80;99.90
51884;DHT22;37915;53.254;6.598;2022-08-20T02:43:11;17.80;99.90
51884;DHT22;37915;53.254;6.598;2022-08-20T02:45:37;17.80;99.90
51884;DHT22;37915;53.254;6.598;2022-08-20T02:48:13;17.80;99.90
51884;DHT22;37915;53.254;6.598;2022-08-20T02:50:47;17.70;99.90
51884;DHT22;37915;53.254;6.598;2022-08-20T02:53:14;17.70;99.90
51884;DHT22;37915;53.254;6.598;2022-08-20T02:55:41;17.70;99.90
51884;DHT22;37915;53.254;6.598;2022-08-20T02:58:06;17.60;99.90
51884;DHT22;37915;53.254;6.598;2022-08-20T03:00:32;17.70;99.90
51884;DHT22;37915;53.254;6.598;2022-08-20T03:02:59;17.60;99.90
51884;DHT22;37915;53.254;6.598;2022-08-20T03:05:26;17.50;99.90
51884;DHT22;37915;53.254;6.598;2022-08-20T03:07:52;17.50;99.90
51884;DHT22;37915;53.254;6.598;2022-08-20T03:10:25;17.50;99.90
51884;DHT22;37915;53.254;6.598;2022-08-20T03:12:51;17.40;99.90
51884;DHT22;37915;53.254;6.598;2022-08-20T03:15:18;17.40;99.90
51884;DHT22;37915;53.254;6.598;2022-08-20T03:17:44;17.40;99.90
51884;DHT22;37915;53.254;6.598;2022-08-20T03:20:10;17.40;99.90
51884;DHT22;37915;53.254;6.598;2022-08-20T03:22:36;17.30;99.90
51884;DHT22;37915;53.254;6.598;2022-08-20T03:25:02;17.30;99.90
51884;DHT22;37915;53.254;6.598;2022-08-20T03:27:29;17.30;99.90
51884;DHT22;37915;53.254;6.598;2022-08-20T03:29:54;17.20;99.90
51884;DHT22;37915;53.254;6.598;2022-08-20T03:32:20;17.20;99.90
51884;DHT22;37915;53.254;6.598;2022-08-20T03:34:46;17.20;99.90
51884;DHT22;37915;53.254;6.598;2022-08-20T03:37:12;17.20;99.90
51884;DHT22;37915;53.254;6.598;2022-08-20T03:39:38;17.20;99.90
51884;DHT22;37915;53.254;6.598;2022-08-20T03:42:04;17.20;99.90
51884;DHT22;37915;53.254;6.598;2022-08-20T03:44:30;17.20;99.90
51884;DHT22;37915;53.254;6.598;2022-08-20T03:46:56;17.20;99.90
51884;DHT22;37915;53.254;6.598;2022-08-20T03:49:22;17.30;99.90
51884;DHT22;37915;53.254;6.598;2022-08-20T03:51:49;17.20;99.90
51884;DHT22;37915;53.254;6.598;2022-08-20T03:54:15;17.20;99.90
51884;DHT22;37915;53.254;6.598;2022-08-20T03:56:41;17.20;99.90
51884;DHT22;37915;53.254;6.598;2022-08-20T03:59:06;17.20;99.90
51884;DHT22;37915;53.254;6.598;2022-08-20T04:01:32;17.10;99.90
51884;DHT22;37915;53.254;6.598;2022-08-20T04:03:58;17.10;99.90
51884;DHT22;37915;53.254;6.598;2022-08-20T04:06:25;17.10;99.90
51884;DHT22;37915;53.254;6.598;2022-08-20T04:08:54;17.20;99.90
51884;DHT22;37915;53.254;6.598;2022-08-20T04:11:20;17.20;99.90
51884;DHT22;37915;53.254;6.598;2022-08-20T04:13:46;17.10;99.90
51884;DHT22;37915;53.254;6.598;2022-08-20T04:16:11;17.20;99.90
51884;DHT22;37915;53.254;6.598;2022-08-20T04:18:37;17.10;99.90
51884;DHT22;37915;53.254;6.598;2022-08-20T04:21:03;17.10;99.90
51884;DHT22;37915;53.254;6.598;2022-08-20T04:23:30;17.10;99.90
51884;DHT22;37915;53.254;6.598;2022-08-20T04:25:56;17.10;99.90
51884;DHT22;37915;53.254;6.598;2022-08-20T04:28:23;17.00;99.90
51884;DHT22;37915;53.254;6.598;2022-08-20T04:30:56;17.00;99.90
51884;DHT22;37915;53.254;6.598;2022-08-20T04:33:23;17.00;99.90
51884;DHT22;37915;53.254;6.598;2022-08-20T04:35:51;17.00;99.90
51884;DHT22;37915;53.254;6.598;2022-08-20T04:38:19;16.90;99.90
51884;DHT22;37915;53.254;6.598;2022-08-20T04:40:45;16.90;99.90
51884;DHT22;37915;53.254;6.598;2022-08-20T04:43:28;16.90;99.90
51884;DHT22;37915;53.254;6.598;2022-08-20T04:45:56;16.90;99.90
51884;DHT22;37915;53.254;6.598;2022-08-20T04:48:24;16.90;99.90
51884;DHT22;37915;53.254;6.598;2022-08-20T04:50:50;16.90;99.90
51884;DHT22;37915;53.254;6.598;2022-08-20T04:53:20;16.90;99.90
51884;DHT22;37915;53.254;6.598;2022-08-20T04:55:47;16.80;99.90
51884;DHT22;37915;53.254;6.598;2022-08-20T04:58:33;16.90;99.90
51884;DHT22;37915;53.254;6.598;2022-08-20T05:01:03;16.90;99.90
51884;DHT22;37915;53.254;6.598;2022-08-20T05:03:30;16.90;99.90
51884;DHT22;37915;53.254;6.598;2022-08-20T05:05:56;16.90;99.90
51884;DHT22;37915;53.254;6.598;2022-08-20T05:08:23;16.90;99.90
51884;DHT22;37915;53.254;6.598;2022-08-20T05:10:50;16.90;99.90
51884;DHT22;37915;53.254;6.598;2022-08-20T05:13:17;16.90;99.90
51884;DHT22;37915;53.254;6.598;2022-08-20T05:15:43;16.90;99.90
51884;DHT22;37915;53.254;6.598;2022-08-20T05:18:10;16.90;99.90
51884;DHT22;37915;53.254;6.598;2022-08-20T05:20:39;16.80;99.90
51884;DHT22;37915;53.254;6.598;2022-08-20T05:23:07;16.90;99.90
51884;DHT22;37915;53.254;6.598;2022-08-20T05:25:34;16.80;99.90
51884;DHT22;37915;53.254;6.598;2022-08-20T05:28:12;16.80;99.90
51884;DHT22;37915;53.254;6.598;2022-08-20T05:30:42;16.80;99.90
51884;DHT22;37915;53.254;6.598;2022-08-20T05:33:10;16.80;99.90
51884;DHT22;37915;53.254;6.598;2022-08-20T05:35:39;16.80;99.90
51884;DHT22;37915;53.254;6.598;2022-08-20T05:38:08;16.80;99.90
51884;DHT22;37915;53.254;6.598;2022-08-20T05:40:36;16.80;99.90
51884;DHT22;37915;53.254;6.598;2022-08-20T05:43:01;16.70;99.90
51884;DHT22;37915;53.254;6.598;2022-08-20T05:45:32;16.70;99.90
51884;DHT22;37915;53.254;6.598;2022-08-20T05:48:06;16.70;99.90
51884;DHT22;37915;53.254;6.598;2022-08-20T05:50:33;16.70;99.90
51884;DHT22;37915;53.254;6.598;2022-08-20T05:53:00;16.70;99.90
51884;DHT22;37915;53.254;6.598;2022-08-20T05:55:26;16.70;99.90
51884;DHT22;37915;53.254;6.598;2022-08-20T05:58:01;16.80;99.90
51884;DHT22;37915;53.254;6.598;2022-08-20T06:00:28;16.80;99.90
51884;DHT22;37915;53.254;6.598;2022-08-20T06:02:55;16.80;99.90
51884;DHT22;37915;53.254;6.598;2022-08-20T06:05:40;16.90;99.90
51884;DHT22;37915;53.254;6.598;2022-08-20T06:08:07;17.00;99.90
51884;DHT22;37915;53.254;6.598;2022-08-20T06:10:34;17.10;99.90
51884;DHT22;37915;53.254;6.598;2022-08-20T06:12:59;17.10;99.90
51884;DHT22;37915;53.254;6.598;2022-08-20T06:15:25;17.20;99.90
51884;DHT22;37915;53.254;6.598;2022-08-20T06:17:51;17.30;99.90
51884;DHT22;37915;53.254;6.598;2022-08-20T06:20:16;17.30;99.90
51884;DHT22;37915;53.254;6.598;2022-08-20T06:22:42;17.40;99.90
51884;DHT22;37915;53.254;6.598;2022-08-20T06:25:09;17.50;99.90
51884;DHT22;37915;53.254;6.598;2022-08-20T06:27:40;17.60;99.90
51884;DHT22;37915;53.254;6.598;2022-08-20T06:30:08;17.60;99.90
51884;DHT22;37915;53.254;6.598;2022-08-20T06:32:35;17.70;99.90
51884;DHT22;37915;53.254;6.598;2022-08-20T06:35:03;17.80;99.90
51884;DHT22;37915;53.254;6.598;2022-08-20T06:37:29;17.90;99.90
51884;DHT22;37915;53.254;6.598;2022-08-20T06:39:59;17.90;99.90
51884;DHT22;37915;53.254;6.598;2022-08-20T06:42:25;18.00;99.90
51884;DHT22;37915;53.254;6.598;2022-08-20T06:44:51;18.10;99.90
51884;DHT22;37915;53.254;6.598;2022-08-20T06:47:18;18.10;99.90
51884;DHT22;37915;53.254;6.598;2022-08-20T06:49:44;18.20;99.90
51884;DHT22;37915;53.254;6.598;2022-08-20T06:52:09;18.20;99.90
51884;DHT22;37915;53.254;6.598;2022-08-20T06:54:35;18.30;99.90
51884;DHT22;37915;53.254;6.598;2022-08-20T06:57:02;18.30;99.90
51884;DHT22;37915;53.254;6.598;2022-08-20T06:59:28;18.40;99.90
51884;DHT22;37915;53.254;6.598;2022-08-20T07:01:54;18.40;99.90
51884;DHT22;37915;53.254;6.598;2022-08-20T07:04:24;18.50;99.90
51884;DHT22;37915;53.254;6.598;2022-08-20T07:06:54;18.50;99.90
51884;DHT22;37915;53.254;6.598;2022-08-20T07:09:22;18.60;99.90
51884;DHT22;37915;53.254;6.598;2022-08-20T07:11:49;18.70;99.90
51884;DHT22;37915;53.254;6.598;2022-08-20T07:14:18;18.70;99.90
51884;DHT22;37915;53.254;6.598;2022-08-20T07:16:45;18.80;99.90
51884;DHT22;37915;53.254;6.598;2022-08-20T07:19:15;18.90;99.90
51884;DHT22;37915;53.254;6.598;2022-08-20T07:21:40;18.90;99.90
51884;DHT22;37915;53.254;6.598;2022-08-20T07:24:06;19.00;99.90
51884;DHT22;37915;53.254;6.598;2022-08-20T07:26:34;19.00;99.90
51884;DHT22;37915;53.254;6.598;2022-08-20T07:29:00;19.10;99.90
51884;DHT22;37915;53.254;6.598;2022-08-20T07:31:25;19.20;99.90
51884;DHT22;37915;53.254;6.598;2022-08-20T07:34:09;19.30;99.90
51884;DHT22;37915;53.254;6.598;2022-08-20T07:36:36;19.40;99.90
51884;DHT22;37915;53.254;6.598;2022-08-20T07:39:02;19.40;99.90
51884;DHT22;37915;53.254;6.598;2022-08-20T07:41:28;19.50;99.90
51884;DHT22;37915;53.254;6.598;2022-08-20T07:43:53;19.60;99.90
51884;DHT22;37915;53.254;6.598;2022-08-20T07:46:20;19.70;99.90
51884;DHT22;37915;53.254;6.598;2022-08-20T07:48:46;19.70;99.90
51884;DHT22;37915;53.254;6.598;2022-08-20T07:51:16;19.70;99.90
51884;DHT22;37915;53.254;6.598;2022-08-20T07:53:43;19.60;99.90
51884;DHT22;37915;53.254;6.598;2022-08-20T07:56:15;19.60;99.90
51884;DHT22;37915;53.254;6.598;2022-08-20T07:58:42;19.50;99.90
51884;DHT22;37915;53.254;6.598;2022-08-20T08:01:09;19.60;99.90
51884;DHT22;37915;53.254;6.598;2022-08-20T08:03:37;19.60;99.90
51884;DHT22;37915;53.254;6.598;2022-08-20T08:06:03;19.70;99.90
51884;DHT22;37915;53.254;6.598;2022-08-20T08:08:31;19.80;99.90
51884;DHT22;37915;53.254;6.598;2022-08-20T08:11:00;19.90;99.90
51884;DHT22;37915;53.254;6.598;2022-08-20T08:13:33;20.10;99.90
51884;DHT22;37915;53.254;6.598;2022-08-20T08:16:00;20.20;99.90
51884;DHT22;37915;53.254;6.598;2022-08-20T08:18:30;20.40;99.90
51884;DHT22;37915;53.254;6.598;2022-08-20T08:20:58;20.50;99.90
51884;DHT22;37915;53.254;6.598;2022-08-20T08:23:24;20.70;99.90
51884;DHT22;37915;53.254;6.598;2022-08-20T08:25:50;21.00;99.90
51884;DHT22;37915;53.254;6.598;2022-08-20T08:28:17;21.20;99.90
51884;DHT22;37915;53.254;6.598;2022-08-20T08:30:45;21.30;99.90
51884;DHT22;37915;53.254;6.598;2022-08-20T08:33:20;21.50;99.90
51884;DHT22;37915;53.254;6.598;2022-08-20T08:35:53;21.60;99.90
51884;DHT22;37915;53.254;6.598;2022-08-20T08:38:19;21.80;99.90
51884;DHT22;37915;53.254;6.598;2022-08-20T08:40:51;21.90;99.90
51884;DHT22;37915;53.254;6.598;2022-08-20T08:43:19;21.90;99.90
51884;DHT22;37915;53.254;6.598;2022-08-20T08:48:20;21.50;99.90
51884;DHT22;37915;53.254;6.598;2022-08-20T08:50:50;21.50;99.90
51884;DHT22;37915;53.254;6.598;2022-08-20T08:53:24;21.60;99.90
51884;DHT22;37915;53.254;6.598;2022-08-20T08:55:50;21.70;99.90
51884;DHT22;37915;53.254;6.598;2022-08-20T08:58:16;22.00;99.90
51884;DHT22;37915;53.254;6.598;2022-08-20T09:00:42;22.20;99.90
51884;DHT22;37915;53.254;6.598;2022-08-20T09:03:15;22.40;99.90
51884;DHT22;37915;53.254;6.598;2022-08-20T09:05:53;22.60;99.90
51884;DHT22;37915;53.254;6.598;2022-08-20T09:08:24;22.50;99.90
51884;DHT22;37915;53.254;6.598;2022-08-20T09:10:51;22.30;99.90
51884;DHT22;37915;53.254;6.598;2022-08-20T09:13:17;22.20;99.90
51884;DHT22;37915;53.254;6.598;2022-08-20T09:15:43;22.10;99.90
51884;DHT22;37915;53.254;6.598;2022-08-20T09:18:09;22.20;99.90
51884;DHT22;37915;53.254;6.598;2022-08-20T09:20:34;22.30;99.90
51884;DHT22;37915;53.254;6.598;2022-08-20T09:23:00;22.50;99.90
51884;DHT22;37915;53.254;6.598;2022-08-20T09:25:26;22.60;99.90
51884;DHT22;37915;53.254;6.598;2022-08-20T09:27:52;22.80;99.90
51884;DHT22;37915;53.254;6.598;2022-08-20T09:30:17;23.00;99.90
51884;DHT22;37915;53.254;6.598;2022-08-20T09:32:43;23.20;99.90
51884;DHT22;37915;53.254;6.598;2022-08-20T09:35:10;23.30;99.90
51884;DHT22;37915;53.254;6.598;2022-08-20T09:37:36;23.30;99.90
51884;DHT22;37915;53.254;6.598;2022-08-20T09:40:02;23.30;99.90
51884;DHT22;37915;53.254;6.598;2022-08-20T09:42:31;23.40;99.90
51884;DHT22;37915;53.254;6.598;2022-08-20T09:44:58;23.40;99.90
51884;DHT22;37915;53.254;6.598;2022-08-20T09:47:25;23.30;99.90
51884;DHT22;37915;53.254;6.598;2022-08-20T09:49:51;23.40;99.90
51884;DHT22;37915;53.254;6.598;2022-08-20T09:54:48;23.50;99.90
51884;DHT22;37915;53.254;6.598;2022-08-20T09:57:15;23.50;99.90
51884;DHT22;37915;53.254;6.598;2022-08-20T09:59:41;23.30;99.90
51884;DHT22;37915;53.254;6.598;2022-08-20T10:02:07;23.20;99.90
51884;DHT22;37915;53.254;6.598;2022-08-20T10:04:33;23.30;99.90
51884;DHT22;37915;53.254;6.598;2022-08-20T10:06:58;23.40;99.90
51884;DHT22;37915;53.254;6.598;2022-08-20T10:09:24;23.60;99.90
51884;DHT22;37915;53.254;6.598;2022-08-20T10:11:50;23.80;99.90
51884;DHT22;37915;53.254;6.598;2022-08-20T10:14:16;23.80;99.90
51884;DHT22;37915;53.254;6.598;2022-08-20T10:16:41;23.70;99.90
51884;DHT22;37915;53.254;6.598;2022-08-20T10:19:07;23.80;99.90
51884;DHT22;37915;53.254;6.598;2022-08-20T10:21:33;24.00;99.90
51884;DHT22;37915;53.254;6.598;2022-08-20T10:23:59;24.20;99.90
51884;DHT22;37915;53.254;6.598;2022-08-20T10:26:25;24.30;99.90
51884;DHT22;37915;53.254;6.598;2022-08-20T10:28:51;24.50;99.90
51884;DHT22;37915;53.254;6.598;2022-08-20T10:31:16;24.50;99.90
51884;DHT22;37915;53.254;6.598;2022-08-20T10:33:42;24.50;99.90
51884;DHT22;37915;53.254;6.598;2022-08-20T10:36:11;24.40;99.90
51884;DHT22;37915;53.254;6.598;2022-08-20T10:38:37;24.30;99.90
51884;DHT22;37915;53.254;6.598;2022-08-20T10:41:03;24.20;99.90
51884;DHT22;37915;53.254;6.598;2022-08-20T10:43:28;24.00;99.90
51884;DHT22;37915;53.254;6.598;2022-08-20T10:45:54;23.80;99.90
51884;DHT22;37915;53.254;6.598;2022-08-20T10:48:21;23.60;99.90
51884;DHT22;37915;53.254;6.598;2022-08-20T10:50:47;23.40;99.90
51884;DHT22;37915;53.254;6.598;2022-08-20T10:53:13;23.20;99.90
51884;DHT22;37915;53.254;6.598;2022-08-20T10:55:39;23.10;99.90
51884;DHT22;37915;53.254;6.598;2022-08-20T10:58:06;22.90;99.90
51884;DHT22;37915;53.254;6.598;2022-08-20T11:00:32;22.90;99.90
51884;DHT22;37915;53.254;6.598;2022-08-20T11:02:58;22.80;99.90
51884;DHT22;37915;53.254;6.598;2022-08-20T11:05:23;22.80;99.90
51884;DHT22;37915;53.254;6.598;2022-08-20T11:07:49;22.80;99.90
51884;DHT22;37915;53.254;6.598;2022-08-20T11:10:15;22.90;99.90
51884;DHT22;37915;53.254;6.598;2022-08-20T11:12:41;23.10;99.90
51884;DHT22;37915;53.254;6.598;2022-08-20T11:15:07;23.30;99.90
51884;DHT22;37915;53.254;6.598;2022-08-20T11:17:35;23.40;99.90
51884;DHT22;37915;53.254;6.598;2022-08-20T11:20:02;23.40;99.90
51884;DHT22;37915;53.254;6.598;2022-08-20T11:22:29;23.40;99.90
51884;DHT22;37915;53.254;6.598;2022-08-20T11:24:55;23.40;99.90
51884;DHT22;37915;53.254;6.598;2022-08-20T11:27:33;23.60;99.90
51884;DHT22;37915;53.254;6.598;2022-08-20T11:29:59;23.80;99.90
51884;DHT22;37915;53.254;6.598;2022-08-20T11:32:25;24.00;99.90
51884;DHT22;37915;53.254;6.598;2022-08-20T11:34:51;24.10;99.90
51884;DHT22;37915;53.254;6.598;2022-08-20T11:37:19;24.20;99.90
51884;DHT22;37915;53.254;6.598;2022-08-20T11:39:45;24.10;99.90
51884;DHT22;37915;53.254;6.598;2022-08-20T11:42:11;24.00;99.90
51884;DHT22;37915;53.254;6.598;2022-08-20T11:44:37;23.90;99.90
51884;DHT22;37915;53.254;6.598;2022-08-20T11:47:04;23.80;99.90
51884;DHT22;37915;53.254;6.598;2022-08-20T11:49:34;23.70;99.90
51884;DHT22;37915;53.254;6.598;2022-08-20T11:52:00;23.60;99.90
51884;DHT22;37915;53.254;6.598;2022-08-20T11:54:26;23.50;99.90
51884;DHT22;37915;53.254;6.598;2022-08-20T11:56:57;23.60;99.90
51884;DHT22;37915;53.254;6.598;2022-08-20T11:59:26;23.60;99.90
51884;DHT22;37915;53.254;6.598;2022-08-20T12:01:52;23.70;99.90
51884;DHT22;37915;53.254;6.598;2022-08-20T12:04:20;23.70;99.90
51884;DHT22;37915;53.254;6.598;2022-08-20T12:06:46;23.60;99.90
51884;DHT22;37915;53.254;6.598;2022-08-20T12:09:11;23.50;99.90
51884;DHT22;37915;53.254;6.598;2022-08-20T12:11:37;23.40;99.70
51884;DHT22;37915;53.254;6.598;2022-08-20T12:14:03;23.40;99.80
51884;DHT22;37915;53.254;6.598;2022-08-20T12:16:28;23.40;99.40
51884;DHT22;37915;53.254;6.598;2022-08-20T12:18:54;23.40;99.30
51884;DHT22;37915;53.254;6.598;2022-08-20T12:21:20;23.30;99.00
51884;DHT22;37915;53.254;6.598;2022-08-20T12:23:45;23.30;98.90
51884;DHT22;37915;53.254;6.598;2022-08-20T12:26:11;23.20;99.00
51884;DHT22;37915;53.254;6.598;2022-08-20T12:28:37;23.30;98.90
51884;DHT22;37915;53.254;6.598;2022-08-20T12:31:03;23.40;98.80
51884;DHT22;37915;53.254;6.598;2022-08-20T12:33:28;23.70;98.60
51884;DHT22;37915;53.254;6.598;2022-08-20T12:35:54;24.10;98.30
51884;DHT22;37915;53.254;6.598;2022-08-20T12:38:21;24.40;98.00
51884;DHT22;37915;53.254;6.598;2022-08-20T12:40:47;24.70;97.70
51884;DHT22;37915;53.254;6.598;2022-08-20T12:43:12;25.00;97.80
51884;DHT22;37915;53.254;6.598;2022-08-20T12:45:38;25.30;97.70
51884;DHT22;37915;53.254;6.598;2022-08-20T12:48:07;25.70;97.50
51884;DHT22;37915;53.254;6.598;2022-08-20T12:50:34;25.80;97.00
51884;DHT22;37915;53.254;6.598;2022-08-20T12:53:01;26.10;96.70
51884;DHT22;37915;53.254;6.598;2022-08-20T12:55:27;26.00;96.30
51884;DHT22;37915;53.254;6.598;2022-08-20T12:57:56;25.70;95.70
51884;DHT22;37915;53.254;6.598;2022-08-20T13:02:52;25.30;95.30
51884;DHT22;37915;53.254;6.598;2022-08-20T13:05:19;25.00;95.10
51884;DHT22;37915;53.254;6.598;2022-08-20T13:07:45;24.90;95.10
51884;DHT22;37915;53.254;6.598;2022-08-20T13:10:23;24.80;95.10
51884;DHT22;37915;53.254;6.598;2022-08-20T13:12:50;24.70;94.00
51884;DHT22;37915;53.254;6.598;2022-08-20T13:15:17;24.70;95.20
51884;DHT22;37915;53.254;6.598;2022-08-20T13:17:43;24.80;94.80
51884;DHT22;37915;53.254;6.598;2022-08-20T13:20:13;24.80;94.50
51884;DHT22;37915;53.254;6.598;2022-08-20T13:22:39;24.90;94.50
51884;DHT22;37915;53.254;6.598;2022-08-20T13:25:06;25.00;94.70
51884;DHT22;37915;53.254;6.598;2022-08-20T13:27:32;25.30;94.80
51884;DHT22;37915;53.254;6.598;2022-08-20T13:29:58;25.70;94.40
51884;DHT22;37915;53.254;6.598;2022-08-20T13:32:24;25.70;93.90
51884;DHT22;37915;53.254;6.598;2022-08-20T13:34:50;25.70;93.80
51884;DHT22;37915;53.254;6.598;2022-08-20T13:37:19;25.70;93.50
51884;DHT22;37915;53.254;6.598;2022-08-20T13:39:44;25.60;93.00
51884;DHT22;37915;53.254;6.598;2022-08-20T13:42:11;25.40;93.30
51884;DHT22;37915;53.254;6.598;2022-08-20T13:44:37;25.20;93.20
51884;DHT22;37915;53.254;6.598;2022-08-20T13:47:15;24.90;93.30
51884;DHT22;37915;53.254;6.598;2022-08-20T13:49:41;24.80;92.70
51884;DHT22;37915;53.254;6.598;2022-08-20T13:52:07;24.70;93.30
51884;DHT22;37915;53.254;6.598;2022-08-20T13:54:33;24.60;93.40
51884;DHT22;37915;53.254;6.598;2022-08-20T13:57:10;24.80;93.60
51884;DHT22;37915;53.254;6.598;2022-08-20T13:59:42;24.90;93.10
51884;DHT22;37915;53.254;6.598;2022-08-20T14:02:10;24.90;92.60
51884;DHT22;37915;53.254;6.598;2022-08-20T14:04:35;24.80;92.40
51884;DHT22;37915;53.254;6.598;2022-08-20T14:07:24;24.80;92.50
51884;DHT22;37915;53.254;6.598;2022-08-20T14:44:57;26.60;88.60
51884;DHT22;37915;53.254;6.598;2022-08-20T14:47:28;26.50;91.10
51884;DHT22;37915;53.254;6.598;2022-08-20T14:49:55;26.20;90.60
51884;DHT22;37915;53.254;6.598;2022-08-20T14:52:23;26.00;90.80
51884;DHT22;37915;53.254;6.598;2022-08-20T14:54:49;25.90;91.00
51884;DHT22;37915;53.254;6.598;2022-08-20T14:57:17;25.90;91.10
51884;DHT22;37915;53.254;6.598;2022-08-20T14:59:44;25.90;91.10
51884;DHT22;37915;53.254;6.598;2022-08-20T15:02:13;26.10;90.90
51884;DHT22;37915;53.254;6.598;2022-08-20T15:04:39;26.00;90.70
51884;DHT22;37915;53.254;6.598;2022-08-20T15:07:06;25.90;90.90
51884;DHT22;37915;53.254;6.598;2022-08-20T15:09:37;25.70;90.90
51884;DHT22;37915;53.254;6.598;2022-08-20T15:12:03;25.30;89.80
51884;DHT22;37915;53.254;6.598;2022-08-20T15:14:29;25.20;91.10
51884;DHT22;37915;53.254;6.598;2022-08-20T15:16:55;25.00;91.00
51884;DHT22;37915;53.254;6.598;2022-08-20T15:19:21;24.80;91.00
51884;DHT22;37915;53.254;6.598;2022-08-20T15:21:47;24.70;91.10
51884;DHT22;37915;53.254;6.598;2022-08-20T15:24:14;24.60;91.10
51884;DHT22;37915;53.254;6.598;2022-08-20T15:26:40;24.50;90.90
51884;DHT22;37915;53.254;6.598;2022-08-20T15:29:06;24.40;91.00
51884;DHT22;37915;53.254;6.598;2022-08-20T15:31:32;24.30;91.10
51884;DHT22;37915;53.254;6.598;2022-08-20T15:33:57;24.20;91.20
51884;DHT22;37915;53.254;6.598;2022-08-20T15:36:23;24.10;91.20
51884;DHT22;37915;53.254;6.598;2022-08-20T15:38:49;24.10;91.40
51884;DHT22;37915;53.254;6.598;2022-08-20T15:41:15;24.10;91.30
51884;DHT22;37915;53.254;6.598;2022-08-20T15:43:41;24.10;91.50
51884;DHT22;37915;53.254;6.598;2022-08-20T15:46:07;24.10;91.60
51884;DHT22;37915;53.254;6.598;2022-08-20T15:48:38;24.00;91.50
51884;DHT22;37915;53.254;6.598;2022-08-20T15:56:40;24.50;91.50
51884;DHT22;37915;53.254;6.598;2022-08-20T16:10:28;24.90;90.60
51884;DHT22;37915;53.254;6.598;2022-08-20T16:12:58;24.80;90.90
51884;DHT22;37915;53.254;6.598;2022-08-20T16:15:30;24.90;91.10
51884;DHT22;37915;53.254;6.598;2022-08-20T16:18:09;25.00;91.00
51884;DHT22;37915;53.254;6.598;2022-08-20T16:20:41;25.00;90.80
51884;DHT22;37915;53.254;6.598;2022-08-20T16:23:07;24.90;91.10
51884;DHT22;37915;53.254;6.598;2022-08-20T16:25:56;25.00;91.30
51884;DHT22;37915;53.254;6.598;2022-08-20T16:28:27;25.10;91.20
51884;DHT22;37915;53.254;6.598;2022-08-20T16:31:04;25.20;91.20
51884;DHT22;37915;53.254;6.598;2022-08-20T16:36:42;25.30;93.40
51884;DHT22;37915;53.254;6.598;2022-08-20T16:39:17;25.30;94.20
51884;DHT22;37915;53.254;6.598;2022-08-20T16:41:48;25.40;94.80
51884;DHT22;37915;53.254;6.598;2022-08-20T16:44:45;25.40;95.00